createdAt,value
2019-03-05T00:01:29.782Z,66.33
2019-03-05T00:03:58.229Z,66.33
2019-03-05T00:06:26.988Z,66.31
2019-03-05T00:08:55.444Z,66.48
2019-03-05T00:11:24.008Z,66.31
2019-03-05T00:13:52.474Z,66.17
2019-03-05T00:16:22.415Z,66.43
2019-03-05T00:18:50.882Z,66.55
2019-03-05T00:21:19.443Z,66.24
2019-03-05T00:23:52.401Z,66.29
2019-03-05T00:26:23.936Z,66.22
2019-03-05T00:29:07.285Z,65.90
2019-03-05T00:31:38.819Z,66.13
2019-03-05T00:34:13.079Z,66.07
2019-03-05T00:36:50.993Z,66.24
2019-03-05T00:39:34.614Z,65.47
2019-03-05T00:42:25.740Z,65.80
2019-03-05T00:45:16.701Z,66.04
2019-03-05T00:48:02.993Z,65.77
2019-03-05T00:50:46.423Z,65.95
2019-03-05T00:53:20.663Z,65.82
2019-03-05T00:56:13.377Z,65.73
2019-03-05T00:58:44.906Z,65.68
2019-03-05T01:01:19.020Z,65.42
2019-03-05T01:04:13.165Z,65.68
2019-03-05T01:06:41.647Z,65.64
2019-03-05T01:09:14.668Z,65.57
2019-03-05T01:11:43.225Z,65.81
2019-03-05T01:14:12.141Z,65.57
2019-03-05T01:16:41.306Z,65.51
2019-03-05T01:19:09.819Z,65.51
2019-03-05T01:21:38.391Z,65.12
2019-03-05T01:24:06.986Z,65.21
2019-03-05T01:26:35.539Z,65.18
2019-03-05T01:29:04.058Z,65.48
2019-03-05T01:31:36.941Z,65.02
2019-03-05T01:34:07.104Z,65.46
2019-03-05T01:36:40.217Z,65.10
2019-03-05T01:39:17.417Z,65.44
2019-03-05T01:41:45.886Z,65.46
2019-03-05T01:44:14.342Z,65.14
2019-03-05T01:46:42.819Z,65.59
2019-03-05T01:49:11.277Z,65.80
2019-03-05T01:51:39.776Z,65.79
2019-03-05T01:54:08.246Z,66.09
2019-03-05T01:56:36.733Z,66.12
2019-03-05T01:59:05.214Z,66.12
2019-03-05T02:01:33.976Z,66.19
2019-03-05T02:04:03.420Z,66.28
2019-03-05T02:06:31.907Z,66.34
2019-03-05T02:09:00.377Z,66.31
2019-03-05T02:11:28.852Z,66.37
2019-03-05T02:13:57.334Z,66.34
2019-03-05T02:16:25.816Z,66.38
2019-03-05T02:18:57.329Z,66.40
2019-03-05T02:21:25.893Z,66.46
2019-03-05T02:24:00.114Z,66.54
2019-03-05T02:26:37.843Z,66.64
2019-03-05T02:29:12.028Z,66.94
2019-03-05T02:31:58.365Z,66.84
2019-03-05T02:34:35.516Z,66.85
2019-03-05T02:37:21.814Z,66.92
2019-03-05T02:39:59.130Z,67.09
2019-03-05T02:42:36.541Z,67.33
2019-03-05T02:45:39.944Z,67.49
2019-03-05T02:48:14.726Z,67.68
2019-03-05T02:51:00.683Z,67.60
2019-03-05T02:53:44.357Z,68.00
2019-03-05T02:56:27.710Z,68.02
2019-03-05T02:58:55.039Z,68.21
2019-03-05T03:01:41.442Z,68.33
2019-03-05T03:04:11.604Z,68.77
2019-03-05T03:06:40.106Z,69.08
2019-03-05T03:09:26.752Z,68.84
2019-03-05T03:11:55.232Z,68.83
2019-03-05T03:14:23.690Z,69.25
2019-03-05T03:16:52.253Z,69.11
2019-03-05T03:19:20.711Z,69.33
2019-03-05T03:21:49.205Z,69.51
2019-03-05T03:24:17.690Z,69.52
2019-03-05T03:26:46.168Z,69.23
2019-03-05T03:29:14.635Z,69.59
2019-03-05T03:31:43.145Z,69.32
2019-03-05T03:34:11.599Z,69.48
2019-03-05T03:36:40.072Z,69.30
2019-03-05T03:39:08.718Z,69.60
2019-03-05T03:41:37.242Z,69.46
2019-03-05T03:44:05.737Z,69.30
2019-03-05T03:46:34.201Z,69.48
2019-03-05T03:49:02.694Z,69.52
2019-03-05T03:51:31.160Z,69.50
2019-03-05T03:53:59.655Z,69.54
2019-03-05T03:56:28.183Z,69.49
2019-03-05T03:58:56.670Z,69.46
2019-03-05T04:01:25.194Z,69.26
2019-03-05T04:03:53.690Z,69.77
2019-03-05T04:06:22.155Z,69.43
2019-03-05T04:08:50.667Z,69.51
2019-03-05T04:11:19.169Z,69.58
2019-03-05T04:13:47.682Z,69.67
2019-03-05T04:16:16.169Z,70.11
2019-03-05T04:18:44.632Z,70.41
2019-03-05T04:21:13.128Z,69.99
2019-03-05T04:23:41.612Z,70.17
2019-03-05T04:26:10.058Z,70.71
2019-03-05T04:28:38.539Z,70.78
2019-03-05T04:31:07.011Z,70.64
2019-03-05T04:33:35.584Z,70.56
2019-03-05T04:36:04.050Z,71.00
2019-03-05T04:38:32.529Z,71.98
2019-03-05T04:41:00.979Z,72.33
2019-03-05T04:43:29.466Z,72.04
2019-03-05T04:46:05.300Z,72.14
2019-03-05T04:48:33.835Z,71.78
2019-03-05T04:51:10.216Z,72.59
2019-03-05T04:53:38.708Z,73.50
2019-03-05T04:56:07.153Z,73.44
2019-03-05T04:58:35.642Z,73.48
2019-03-05T05:01:04.166Z,73.73
2019-03-05T05:03:35.664Z,73.31
2019-03-05T05:06:04.124Z,73.34
2019-03-05T05:08:32.607Z,73.18
2019-03-05T05:11:01.059Z,73.45
2019-03-05T05:13:29.693Z,74.00
2019-03-05T05:15:58.134Z,73.62
2019-03-05T05:18:28.441Z,73.94
2019-03-05T05:20:56.891Z,73.66
2019-03-05T05:23:25.374Z,74.08
2019-03-05T05:25:53.871Z,73.62
2019-03-05T05:28:23.612Z,74.08
2019-03-05T05:30:52.085Z,74.11
2019-03-05T05:33:20.569Z,73.79
2019-03-05T05:35:49.059Z,73.60
2019-03-05T05:38:17.518Z,73.80
2019-03-05T05:40:47.739Z,73.88
2019-03-05T05:43:22.132Z,74.20
2019-03-05T05:45:52.448Z,73.37
2019-03-05T05:48:21.014Z,73.81
2019-03-05T05:50:49.464Z,74.24
2019-03-05T05:53:17.948Z,74.59
2019-03-05T05:55:46.388Z,73.59
2019-03-05T05:58:14.868Z,74.26
2019-03-05T06:00:47.954Z,74.18
2019-03-05T06:03:16.452Z,73.85
2019-03-05T06:05:45.068Z,73.97
2019-03-05T06:08:13.540Z,73.45
2019-03-05T06:10:42.025Z,73.90
2019-03-05T06:13:10.490Z,73.47
2019-03-05T06:15:39.295Z,73.53
2019-03-05T06:18:07.757Z,73.33
2019-03-05T06:20:36.270Z,73.41
2019-03-05T06:23:04.796Z,73.87
2019-03-05T06:25:33.358Z,73.19
2019-03-05T06:28:01.812Z,73.37
2019-03-05T06:30:38.827Z,73.66
2019-03-05T06:33:08.426Z,73.35
2019-03-05T06:35:36.985Z,73.21
2019-03-05T06:38:05.462Z,73.26
2019-03-05T06:40:34.010Z,72.88
2019-03-05T06:43:02.595Z,72.77
2019-03-05T06:45:31.067Z,73.13
2019-03-05T06:47:59.547Z,73.14
2019-03-05T06:50:29.066Z,73.03
2019-03-05T06:52:57.542Z,73.13
2019-03-05T06:55:26.023Z,73.01
2019-03-05T06:57:54.496Z,72.85
2019-03-05T07:00:38.598Z,72.72
2019-03-05T07:03:08.809Z,72.55
2019-03-05T07:06:13.783Z,72.47
2019-03-05T07:08:51.118Z,72.18
2019-03-05T07:11:40.447Z,71.96
2019-03-05T07:14:23.838Z,71.80
2019-03-05T07:17:04.358Z,71.52
2019-03-05T07:19:35.898Z,71.42
2019-03-05T07:22:19.595Z,71.30
2019-03-05T07:24:48.733Z,70.94
2019-03-05T07:27:20.038Z,70.60
2019-03-05T07:29:48.535Z,70.88
2019-03-05T07:32:18.024Z,70.30
2019-03-05T07:34:48.184Z,70.05
2019-03-05T07:37:16.726Z,69.01
2019-03-05T07:39:45.282Z,68.65
2019-03-05T07:42:13.808Z,67.99
2019-03-05T07:44:42.310Z,68.75
2019-03-05T07:47:10.765Z,68.10
2019-03-05T07:49:43.655Z,67.35
2019-03-05T07:52:09.811Z,66.80
2019-03-05T07:54:38.332Z,67.97
2019-03-05T07:57:06.823Z,68.56
2019-03-05T07:59:35.300Z,66.69
2019-03-05T08:02:04.076Z,67.64
2019-03-05T08:04:32.547Z,66.04
2019-03-05T08:07:01.037Z,66.43
2019-03-05T08:09:37.716Z,66.91
2019-03-05T08:12:18.467Z,65.76
2019-03-05T08:15:11.011Z,65.89
2019-03-05T08:17:39.503Z,66.43
2019-03-05T08:20:10.949Z,65.04
2019-03-05T08:22:39.433Z,65.39
2019-03-05T08:25:10.836Z,64.60
2019-03-05T08:27:39.348Z,65.38
2019-03-05T08:30:14.850Z,64.88
2019-03-05T08:32:43.609Z,65.28
2019-03-05T08:35:12.207Z,65.56
2019-03-05T08:37:40.699Z,64.86
2019-03-05T08:40:14.478Z,65.90
2019-03-05T08:42:42.960Z,66.00
2019-03-05T08:45:14.325Z,65.17
2019-03-05T08:47:42.858Z,65.06
2019-03-05T08:50:13.738Z,65.22
2019-03-05T08:52:42.213Z,64.38
2019-03-05T08:55:13.794Z,62.95
2019-03-05T08:57:42.278Z,64.05
2019-03-05T09:00:16.736Z,64.16
2019-03-05T09:02:49.024Z,63.31
2019-03-05T09:05:17.518Z,62.45
2019-03-05T09:07:46.339Z,63.33
2019-03-05T09:10:17.254Z,60.26
2019-03-05T09:12:45.763Z,62.30
2019-03-05T09:15:17.122Z,63.10
2019-03-05T09:17:45.874Z,61.45
2019-03-05T09:20:16.776Z,61.88
2019-03-05T09:22:45.330Z,60.74
2019-03-05T09:25:17.595Z,62.76
2019-03-05T09:27:46.073Z,62.21
2019-03-05T09:30:17.255Z,61.16
2019-03-05T09:32:45.736Z,61.17
2019-03-05T09:35:16.031Z,60.09
2019-03-05T09:37:45.267Z,61.59
2019-03-05T09:40:33.111Z,61.89
2019-03-05T09:43:01.592Z,61.00
2019-03-05T09:45:31.287Z,62.01
2019-03-05T09:47:59.843Z,61.37
2019-03-05T09:50:28.377Z,61.50
2019-03-05T09:52:57.006Z,62.38
2019-03-05T09:55:30.954Z,62.04
2019-03-05T09:58:08.011Z,62.34
2019-03-05T10:00:30.785Z,61.67
2019-03-05T10:02:59.267Z,62.01
2019-03-05T10:05:27.763Z,62.08
2019-03-05T10:07:56.227Z,61.72
2019-03-05T10:10:28.802Z,61.79
2019-03-05T10:12:59.114Z,61.45
2019-03-05T10:15:28.699Z,60.19
2019-03-05T10:17:57.255Z,60.73
2019-03-05T10:20:30.334Z,61.21
2019-03-05T10:22:59.053Z,60.49
2019-03-05T10:25:28.553Z,60.21
2019-03-05T10:27:57.828Z,60.02
2019-03-05T10:30:29.350Z,60.60
2019-03-05T10:33:00.733Z,61.56
2019-03-05T10:35:29.354Z,61.57
2019-03-05T10:38:00.489Z,63.18
2019-03-05T10:40:53.497Z,62.06
2019-03-05T10:43:21.995Z,62.19
2019-03-05T10:45:50.822Z,60.36
2019-03-05T10:48:21.111Z,56.48
2019-03-05T10:50:49.741Z,60.61
2019-03-05T10:53:18.629Z,57.71
2019-03-05T10:55:47.266Z,55.79
2019-03-05T10:58:18.448Z,51.06
2019-03-05T11:00:49.224Z,52.92
2019-03-05T11:03:19.857Z,51.64
2019-03-05T11:05:49.016Z,53.70
2019-03-05T11:08:23.232Z,52.43
2019-03-05T11:10:53.171Z,50.80
2019-03-05T11:13:21.825Z,52.54
2019-03-05T11:15:53.347Z,52.55
2019-03-05T11:18:29.312Z,52.81
2019-03-05T11:20:52.286Z,51.97
2019-03-05T11:23:20.776Z,52.83
2019-03-05T11:25:49.323Z,53.87
2019-03-05T11:28:17.818Z,53.55
2019-03-05T11:30:46.351Z,54.20
2019-03-05T11:33:15.215Z,53.94
2019-03-05T11:35:43.757Z,54.17
2019-03-05T11:38:12.246Z,54.36
2019-03-05T11:40:40.783Z,54.17
2019-03-05T11:43:11.333Z,54.66
2019-03-05T11:45:41.723Z,53.75
2019-03-05T11:48:10.365Z,54.14
2019-03-05T11:50:38.826Z,54.31
2019-03-05T11:53:07.309Z,54.16
2019-03-05T11:55:35.776Z,55.03
2019-03-05T11:58:04.273Z,55.38
2019-03-05T12:00:45.043Z,55.29
2019-03-05T12:03:13.524Z,55.40
2019-03-05T12:05:42.159Z,55.58
2019-03-05T12:08:10.664Z,56.21
2019-03-05T12:10:39.122Z,56.48
2019-03-05T12:13:07.961Z,57.18
2019-03-05T12:15:44.398Z,57.05
2019-03-05T12:18:13.043Z,56.81
2019-03-05T12:20:41.678Z,57.14
2019-03-05T12:23:11.692Z,56.78
2019-03-05T12:25:41.203Z,57.23
2019-03-05T12:28:11.030Z,58.20
2019-03-05T12:30:40.039Z,58.39
2019-03-05T12:33:08.522Z,57.89
2019-03-05T12:35:37.096Z,58.06
2019-03-05T12:38:06.013Z,58.25
2019-03-05T12:40:34.678Z,58.21
2019-03-05T12:43:03.151Z,58.73
2019-03-05T12:45:31.697Z,58.80
2019-03-05T12:48:00.169Z,59.12
2019-03-05T12:50:36.007Z,59.49
2019-03-05T12:53:05.050Z,60.54
2019-03-05T12:55:33.527Z,59.85
2019-03-05T12:58:01.988Z,60.66
2019-03-05T13:00:35.204Z,61.54
2019-03-05T13:03:04.298Z,60.83
2019-03-05T13:05:32.769Z,61.12
2019-03-05T13:08:01.233Z,61.41
2019-03-05T13:10:36.251Z,60.95
2019-03-05T13:13:04.245Z,60.64
2019-03-05T13:15:34.510Z,60.65
2019-03-05T13:18:03.148Z,60.60
2019-03-05T13:20:31.809Z,60.45
2019-03-05T13:23:00.344Z,60.94
2019-03-05T13:25:29.987Z,60.60
2019-03-05T13:28:02.080Z,60.67
2019-03-05T13:30:32.031Z,60.68
2019-03-05T13:33:00.948Z,60.54
2019-03-05T13:35:30.641Z,61.16
2019-03-05T13:38:10.813Z,60.90
2019-03-05T13:40:40.725Z,60.85
2019-03-05T13:43:09.777Z,60.69
2019-03-05T13:45:43.945Z,60.45
2019-03-05T13:48:18.831Z,60.75
2019-03-05T13:50:59.708Z,60.58
2019-03-05T13:53:37.203Z,60.45
2019-03-05T13:56:44.015Z,60.60
2019-03-05T13:59:44.379Z,60.18
2019-03-05T14:02:15.217Z,60.43
2019-03-05T14:05:01.182Z,60.49
2019-03-05T14:08:01.371Z,60.04
2019-03-05T14:10:29.878Z,59.96
2019-03-05T14:12:58.331Z,60.16
2019-03-05T14:15:26.862Z,60.31
2019-03-05T14:17:55.348Z,60.79
2019-03-05T14:20:31.577Z,61.44
2019-03-05T14:22:54.017Z,62.29
2019-03-05T14:25:22.490Z,61.53
2019-03-05T14:27:51.021Z,62.84
2019-03-05T14:30:21.498Z,62.24
2019-03-05T14:32:50.077Z,61.75
2019-03-05T14:35:19.636Z,61.92
2019-03-05T14:37:48.546Z,62.63
2019-03-05T14:40:25.377Z,62.14
2019-03-05T14:42:53.860Z,61.55
2019-03-05T14:45:30.458Z,61.81
2019-03-05T14:48:00.020Z,61.22
2019-03-05T14:50:28.750Z,60.79
2019-03-05T14:52:57.244Z,60.70
2019-03-05T14:55:25.722Z,60.52
2019-03-05T14:57:54.186Z,60.58
2019-03-05T15:00:23.830Z,60.31
2019-03-05T15:02:52.497Z,60.35
2019-03-05T15:05:21.230Z,60.30
2019-03-05T15:07:49.689Z,60.20
2019-03-05T15:10:18.162Z,60.17
2019-03-05T15:12:46.682Z,60.28
2019-03-05T15:15:18.577Z,60.70
2019-03-05T15:17:47.352Z,60.69
2019-03-05T15:20:15.923Z,60.89
2019-03-05T15:22:44.367Z,60.85
2019-03-05T15:25:14.955Z,61.35
2019-03-05T15:27:43.629Z,61.22
2019-03-05T15:30:15.120Z,62.06
2019-03-05T15:32:43.607Z,63.15
2019-03-05T15:35:12.764Z,64.03
2019-03-05T15:37:41.289Z,64.36
2019-03-05T15:40:14.482Z,64.81
2019-03-05T15:42:42.925Z,64.55
2019-03-05T15:45:22.451Z,66.45
2019-03-05T15:47:50.972Z,64.99
2019-03-05T15:50:22.597Z,66.48
2019-03-05T15:52:51.135Z,68.55
2019-03-05T15:55:19.626Z,68.85
2019-03-05T15:57:48.283Z,68.32
2019-03-05T16:00:29.637Z,68.78
2019-03-05T16:02:58.569Z,67.44
2019-03-05T16:05:27.866Z,67.93
2019-03-05T16:07:56.490Z,68.99
2019-03-05T16:10:24.944Z,68.68
2019-03-05T16:12:53.577Z,69.80
2019-03-05T16:15:22.035Z,68.02
2019-03-05T16:17:50.514Z,67.86
2019-03-05T16:20:20.009Z,68.53
2019-03-05T16:22:51.058Z,69.42
2019-03-05T16:25:22.174Z,70.33
2019-03-05T16:27:50.828Z,72.91
2019-03-05T16:30:39.983Z,76.34
2019-03-05T16:33:10.237Z,77.28
2019-03-05T16:35:40.346Z,76.04
2019-03-05T16:38:28.302Z,77.06
2019-03-05T16:41:17.032Z,76.18
2019-03-05T16:43:49.869Z,75.85
2019-03-05T16:46:19.976Z,78.34
2019-03-05T16:48:58.908Z,76.86
2019-03-05T16:51:29.005Z,78.94
2019-03-05T16:54:11.151Z,77.41
2019-03-05T16:56:59.646Z,78.00
2019-03-05T16:59:46.166Z,78.10
2019-03-05T17:02:19.815Z,77.02
2019-03-05T17:05:06.141Z,75.12
2019-03-05T17:07:41.903Z,74.82
2019-03-05T17:10:13.354Z,77.81
2019-03-05T17:12:41.989Z,78.73
2019-03-05T17:15:10.919Z,77.29
2019-03-05T17:17:39.462Z,77.66
2019-03-05T17:20:10.952Z,78.76
2019-03-05T17:22:39.429Z,76.12
2019-03-05T17:25:19.341Z,75.88
2019-03-05T17:27:47.823Z,76.01
2019-03-05T17:30:17.623Z,78.22
2019-03-05T17:32:46.735Z,78.24
2019-03-05T17:35:16.242Z,76.22
2019-03-05T17:37:45.016Z,77.80
2019-03-05T17:40:15.044Z,75.68
2019-03-05T17:42:43.532Z,77.58
2019-03-05T17:45:18.292Z,78.79
2019-03-05T17:47:46.774Z,77.77
2019-03-05T17:50:15.468Z,77.82
2019-03-05T17:52:44.012Z,78.64
2019-03-05T17:55:24.221Z,78.45
2019-03-05T17:57:47.954Z,76.99
2019-03-05T18:00:26.667Z,79.67
2019-03-05T18:02:55.142Z,78.82
2019-03-05T18:05:23.606Z,79.29
2019-03-05T18:07:52.255Z,78.70
2019-03-05T18:10:20.997Z,78.87
2019-03-05T18:12:49.747Z,79.51
2019-03-05T18:15:18.678Z,79.74
2019-03-05T18:17:47.140Z,78.44
2019-03-05T18:20:23.726Z,78.14
2019-03-05T18:22:52.207Z,78.44
2019-03-05T18:25:20.804Z,78.02
2019-03-05T18:27:49.310Z,78.50
2019-03-05T18:30:25.748Z,81.56
2019-03-05T18:32:54.589Z,79.96
2019-03-05T18:35:23.048Z,79.93
2019-03-05T18:37:51.768Z,81.86
2019-03-05T18:40:24.143Z,82.11
2019-03-05T18:42:52.869Z,80.11
2019-03-05T18:45:24.686Z,80.49
2019-03-05T18:47:53.158Z,80.14
2019-03-05T18:50:22.577Z,80.99
2019-03-05T18:52:53.339Z,80.72
2019-03-05T18:55:25.117Z,81.63
2019-03-05T18:57:53.722Z,81.35
2019-03-05T19:00:26.332Z,80.52
2019-03-05T19:02:56.932Z,81.66
2019-03-05T19:05:25.410Z,81.07
2019-03-05T19:07:54.047Z,81.05
2019-03-05T19:10:26.317Z,83.89
2019-03-05T19:12:54.848Z,83.71
2019-03-05T19:15:27.839Z,83.46
2019-03-05T19:17:56.599Z,83.44
2019-03-05T19:20:27.182Z,82.66
2019-03-05T19:22:55.711Z,82.60
2019-03-05T19:25:36.136Z,83.84
2019-03-05T19:28:05.224Z,82.91
2019-03-05T19:30:41.630Z,82.21
2019-03-05T19:33:10.164Z,84.86
2019-03-05T19:35:38.729Z,83.89
2019-03-05T19:38:07.208Z,84.79
2019-03-05T19:40:37.778Z,86.15
2019-03-05T19:43:07.183Z,83.80
2019-03-05T19:45:35.658Z,85.33
2019-03-05T19:48:04.484Z,85.13
2019-03-05T19:50:32.958Z,83.88
2019-03-05T19:53:01.585Z,85.13
2019-03-05T19:55:30.904Z,84.16
2019-03-05T19:58:08.765Z,83.47
2019-03-05T20:01:04.649Z,85.79
2019-03-05T20:03:33.159Z,85.38
2019-03-05T20:06:01.880Z,84.68
2019-03-05T20:08:39.432Z,84.07
2019-03-05T20:11:00.562Z,85.13
2019-03-05T20:13:29.023Z,85.00
2019-03-05T20:15:57.582Z,85.72
2019-03-05T20:18:26.106Z,83.97
2019-03-05T20:20:54.769Z,84.29
2019-03-05T20:23:23.503Z,84.75
2019-03-05T20:25:52.054Z,86.01
2019-03-05T20:28:20.519Z,85.55
2019-03-05T20:30:49.031Z,84.43
2019-03-05T20:33:17.492Z,84.43
2019-03-05T20:35:45.978Z,86.24
2019-03-05T20:38:14.446Z,84.53
2019-03-05T20:40:42.927Z,84.15
2019-03-05T20:43:11.459Z,84.89
2019-03-05T20:45:48.609Z,86.18
2019-03-05T20:48:17.457Z,85.30
2019-03-05T20:50:45.960Z,86.05
2019-03-05T20:53:14.429Z,85.76
2019-03-05T20:55:42.981Z,86.81
2019-03-05T20:58:11.515Z,85.35
2019-03-05T21:00:40.751Z,85.30
2019-03-05T21:03:11.533Z,86.70
2019-03-05T21:05:44.772Z,85.74
2019-03-05T21:08:13.611Z,84.53
2019-03-05T21:10:42.103Z,85.13
2019-03-05T21:13:10.911Z,85.78
2019-03-05T21:15:39.406Z,85.55
2019-03-05T21:18:10.649Z,85.39
2019-03-05T21:20:39.342Z,84.73
2019-03-05T21:23:08.031Z,84.34
2019-03-05T21:25:36.748Z,84.62
2019-03-05T21:28:05.207Z,86.25
2019-03-05T21:30:33.780Z,85.15
2019-03-05T21:33:02.267Z,84.35
2019-03-05T21:35:30.733Z,84.31
2019-03-05T21:37:59.208Z,84.37
2019-03-05T21:40:31.756Z,85.95
2019-03-05T21:43:00.215Z,84.83
2019-03-05T21:45:40.333Z,84.47
2019-03-05T21:48:08.799Z,83.94
2019-03-05T21:50:37.294Z,83.86
2019-03-05T21:53:06.190Z,85.25
2019-03-05T21:55:34.671Z,84.60
2019-03-05T21:58:03.251Z,83.74
2019-03-05T22:00:32.945Z,84.21
2019-03-05T22:03:02.553Z,84.28
2019-03-05T22:05:31.423Z,84.73
2019-03-05T22:07:59.882Z,84.20
2019-03-05T22:10:28.422Z,84.62
2019-03-05T22:12:56.891Z,85.58
2019-03-05T22:15:27.335Z,84.27
2019-03-05T22:17:55.798Z,84.36
2019-03-05T22:20:24.469Z,84.63
2019-03-05T22:22:52.941Z,84.12
2019-03-05T22:25:22.656Z,83.61
2019-03-05T22:27:51.265Z,84.88
2019-03-05T22:30:25.243Z,83.79
2019-03-05T22:32:53.976Z,83.94
2019-03-05T22:35:22.830Z,84.42
2019-03-05T22:37:51.540Z,85.32
2019-03-05T22:40:22.360Z,84.91
2019-03-05T22:42:50.825Z,84.11
2019-03-05T22:45:35.280Z,85.32
2019-03-05T22:48:03.815Z,85.39
2019-03-05T22:50:32.291Z,84.85
2019-03-05T22:53:00.753Z,84.88
2019-03-05T22:55:29.247Z,83.63
2019-03-05T22:57:57.981Z,83.59
2019-03-05T23:01:06.648Z,83.89
2019-03-05T23:03:35.388Z,83.75
2019-03-05T23:06:07.194Z,83.78
2019-03-05T23:08:35.729Z,83.12
2019-03-05T23:11:04.485Z,84.43
2019-03-05T23:13:33.099Z,84.98
2019-03-05T23:16:01.757Z,84.93
2019-03-05T23:18:30.218Z,85.25
2019-03-05T23:20:58.682Z,85.27
2019-03-05T23:23:27.317Z,84.73
2019-03-05T23:25:55.782Z,85.63
2019-03-05T23:28:24.469Z,84.02
2019-03-05T23:30:52.932Z,84.47
2019-03-05T23:33:21.518Z,84.99
2019-03-05T23:35:49.977Z,84.86
2019-03-05T23:38:18.482Z,83.67
2019-03-05T23:40:47.382Z,83.85
2019-03-05T23:43:15.954Z,83.96
2019-03-05T23:45:44.491Z,83.97
2019-03-05T23:48:12.971Z,83.10
2019-03-05T23:50:41.506Z,83.89
2019-03-05T23:53:10.050Z,84.18
2019-03-05T23:55:38.517Z,83.80
2019-03-05T23:58:07.003Z,83.51
